Terminal Aerodrome Forecast
Issued by NWS Sterling, VA

Current Version | Previous Version | Text Only | Print | Product List | Glossary Off
Versions: 1 2 3 4 5 6 7 8 9 10 11 12 13 14 15 16 17 18 19 20 21 22 23 24 25 26

000
FTUS41 KLWX 031404 AAA
TAFDCA
TAF AMD
KDCA 031404Z 0314/0412 29006KT P6SM SCT015 BKN090
     FM031700 36005KT 5SM -SHRA OVC015
     FM031800 VRB04KT P6SM OVC015
     FM040500 05004KT 6SM BR OVC008=

USA.gov is the U.S. government's official web portal to all federal, state and local government web resources and services.